Time;durP1;ratioP1;P1;durP2;ratioP2;P2;SDS_P1;SDS_P2;PMS_P1;PMS_P2;Temp;Humidity;BMP_temperature;BMP_pressure;BME280_temperature;BME280_humidity;BME280_pressure;Samples;Min_cycle;Max_cycle;Signal;HPM_P1;HPM_P2
2023/01/15 00:01:03;;;;;;;14.80;5.63;;;5.20;99.90;;;;;;5067922;28;20410;-82
2023/01/15 00:03:29;;;;;;;16.20;4.87;;;5.10;99.90;;;;;;5067711;28;20052;-76
2023/01/15 00:05:55;;;;;;;16.70;5.37;;;5.20;99.90;;;;;;5065326;28;20510;-76
2023/01/15 00:08:21;;;;;;;16.90;5.47;;;5.20;99.90;;;;;;5070464;28;20041;-75
2023/01/15 00:10:47;;;;;;;16.77;6.57;;;5.10;99.90;;;;;;5066124;28;20403;-76
2023/01/15 00:13:12;;;;;;;13.97;6.17;;;5.10;99.90;;;;;;5069784;28;20496;-76
2023/01/15 00:15:38;;;;;;;14.67;6.33;;;5.20;99.90;;;;;;5070333;28;20040;-76
2023/01/15 00:18:04;;;;;;;13.87;5.43;;;5.20;99.90;;;;;;5069488;28;20056;-76
2023/01/15 00:20:30;;;;;;;13.50;4.97;;;5.20;99.90;;;;;;5070662;28;20044;-78
2023/01/15 00:22:55;;;;;;;15.77;6.30;;;5.20;99.90;;;;;;5071157;28;20119;-76
2023/01/15 00:28:05;;;;;;;20.43;5.80;;;5.30;99.90;;;;;;5069474;28;20048;-76
2023/01/15 00:30:31;;;;;;;16.03;6.17;;;5.30;99.90;;;;;;5069605;28;20052;-77
2023/01/15 00:32:58;;;;;;;16.90;8.17;;;5.30;99.90;;;;;;5068814;28;20049;-76
2023/01/15 00:35:24;;;;;;;19.20;9.60;;;5.30;99.90;;;;;;5069676;28;20052;-75
2023/01/15 00:37:50;;;;;;;14.77;5.33;;;5.50;99.90;;;;;;5069048;28;20502;-74
2023/01/15 00:40:17;;;;;;;21.10;6.80;;;5.40;99.90;;;;;;5058778;28;20093;-78
2023/01/15 00:42:43;;;;;;;21.07;9.10;;;5.50;99.90;;;;;;5068805;28;20139;-77
2023/01/15 00:45:10;;;;;;;19.50;4.73;;;5.50;99.90;;;;;;5069309;28;20103;-76
2023/01/15 00:47:41;;;;;;;20.60;6.37;;;5.50;99.90;;;;;;5069759;28;20048;-77
2023/01/15 00:50:10;;;;;;;16.27;6.93;;;5.70;99.90;;;;;;5069542;28;20048;-81
2023/01/15 00:52:36;;;;;;;18.20;5.07;;;5.90;99.90;;;;;;5068222;28;20033;-76
2023/01/15 00:55:02;;;;;;;20.27;6.33;;;6.00;99.90;;;;;;5067141;28;20041;-76
2023/01/15 00:57:28;;;;;;;17.70;6.07;;;6.10;99.90;;;;;;5070340;28;20521;-75
2023/01/15 00:59:53;;;;;;;21.00;4.87;;;6.20;99.90;;;;;;5068623;28;20063;-77
2023/01/15 01:02:19;;;;;;;16.13;7.27;;;6.20;99.90;;;;;;5069863;28;20107;-76
2023/01/15 01:04:45;;;;;;;18.93;5.70;;;6.20;99.90;;;;;;5066704;28;20247;-78
2023/01/15 01:07:11;;;;;;;19.90;6.47;;;6.10;99.90;;;;;;5068857;28;20059;-76
2023/01/15 01:09:37;;;;;;;15.30;5.33;;;6.20;99.90;;;;;;5067668;28;20044;-78
2023/01/15 01:12:03;;;;;;;14.63;5.60;;;6.20;99.90;;;;;;5068656;28;20040;-76
2023/01/15 01:14:28;;;;;;;16.03;8.67;;;6.10;99.90;;;;;;5068170;28;20040;-76
2023/01/15 01:16:54;;;;;;;22.53;7.13;;;6.20;99.90;;;;;;5067957;28;20052;-77
2023/01/15 01:19:22;;;;;;;22.83;8.93;;;6.10;99.90;;;;;;5067889;28;20033;-75
2023/01/15 01:21:49;;;;;;;16.90;7.93;;;6.20;99.90;;;;;;5068949;28;20071;-75
2023/01/15 01:24:21;;;;;;;19.83;5.93;;;6.10;99.90;;;;;;5066255;28;20056;-76
2023/01/15 01:26:47;;;;;;;22.13;7.43;;;6.10;99.90;;;;;;5067546;28;20074;-76
2023/01/15 01:29:15;;;;;;;20.67;7.13;;;6.10;99.90;;;;;;5069092;28;20048;-76
2023/01/15 01:31:41;;;;;;;19.00;11.20;;;6.00;99.90;;;;;;5068878;28;20048;-78
2023/01/15 01:34:08;;;;;;;18.67;9.43;;;6.00;99.90;;;;;;5068025;28;20052;-79
2023/01/15 01:36:36;;;;;;;18.07;5.20;;;6.00;99.90;;;;;;5068836;28;20039;-77
2023/01/15 01:39:04;;;;;;;16.93;10.53;;;6.10;99.90;;;;;;5068702;28;20398;-76
2023/01/15 01:41:30;;;;;;;17.43;4.73;;;6.10;99.90;;;;;;5069221;28;20374;-75
2023/01/15 01:44:00;;;;;;;25.87;6.90;;;6.10;99.90;;;;;;5067578;28;20060;-75
2023/01/15 01:46:28;;;;;;;13.27;5.63;;;6.10;99.90;;;;;;5068424;28;20083;-76
2023/01/15 01:49:08;;;;;;;18.33;6.87;;;6.10;99.90;;;;;;5068500;28;20052;-76
2023/01/15 01:51:42;;;;;;;18.30;6.33;;;6.20;99.90;;;;;;5068996;28;20053;-76
2023/01/15 01:54:09;;;;;;;35.00;31.40;;;6.10;99.90;;;;;;5067774;28;20101;-77
2023/01/15 01:56:36;;;;;;;22.33;4.93;;;6.20;99.90;;;;;;5067646;28;20056;-76
2023/01/15 01:59:02;;;;;;;19.77;6.30;;;6.20;99.90;;;;;;5067788;28;20067;-77
2023/01/15 02:01:28;;;;;;;19.63;5.07;;;6.10;99.90;;;;;;5068741;28;20052;-78
2023/01/15 02:03:54;;;;;;;18.23;8.13;;;6.10;99.90;;;;;;5068650;28;20121;-76
2023/01/15 02:06:23;;;;;;;19.47;6.20;;;6.00;99.90;;;;;;5068323;28;20044;-77
2023/01/15 02:08:48;;;;;;;22.17;10.50;;;6.10;99.90;;;;;;5067123;28;20550;-77
2023/01/15 02:11:18;;;;;;;17.70;6.33;;;6.10;99.90;;;;;;5068882;28;20127;-75
2023/01/15 02:13:50;;;;;;;18.67;5.23;;;6.10;99.90;;;;;;5063600;28;20410;-77
2023/01/15 02:16:29;;;;;;;24.93;8.97;;;6.20;99.90;;;;;;5064127;28;20052;-76
2023/01/15 02:19:18;;;;;;;19.60;7.00;;;6.10;99.90;;;;;;5063917;28;20513;-77
2023/01/15 02:22:45;;;;;;;21.77;5.83;;;6.10;99.90;;;;;;5068422;28;20045;-76
2023/01/15 02:25:27;;;;;;;17.27;5.40;;;6.10;99.90;;;;;;5020212;28;20089;-76
2023/01/15 02:27:56;;;;;;;;;;;6.00;99.90;;;;;;5061612;28;20067;-76
2023/01/15 02:30:33;;;;;;;22.97;10.37;;;6.00;99.90;;;;;;5068119;28;20032;-78
2023/01/15 02:33:14;;;;;;;17.30;4.80;;;6.20;99.90;;;;;;5065198;28;20056;-76
2023/01/15 02:35:48;;;;;;;20.35;4.82;;;6.00;99.90;;;;;;5066378;28;20087;-76
2023/01/15 02:38:21;;;;;;;23.10;6.37;;;6.00;99.90;;;;;;5066938;28;20958;-76
2023/01/15 02:40:49;;;;;;;18.77;6.37;;;6.00;99.90;;;;;;5068450;28;20056;-76
2023/01/15 02:43:18;;;;;;;19.33;7.63;;;6.00;99.90;;;;;;5067551;28;20088;-76
2023/01/15 02:45:48;;;;;;;22.80;5.23;;;6.00;99.90;;;;;;5066183;28;20090;-76
2023/01/15 02:48:16;;;;;;;19.47;5.80;;;6.00;99.90;;;;;;5068443;28;20097;-77
2023/01/15 02:50:50;;;;;;;18.67;6.03;;;6.00;99.90;;;;;;5067693;28;20394;-77
2023/01/15 02:53:23;;;;;;;17.30;5.60;;;6.00;99.90;;;;;;5065988;28;20040;-77
2023/01/15 02:55:53;;;;;;;48.13;42.87;;;6.00;99.90;;;;;;5066679;28;20379;-80
2023/01/15 02:58:27;;;;;;;24.13;4.93;;;6.00;99.90;;;;;;5066243;28;20072;-76
2023/01/15 03:00:56;;;;;;;17.20;6.03;;;6.00;99.90;;;;;;5067957;28;20103;-76
2023/01/15 03:03:38;;;;;;;20.80;7.20;;;6.00;99.90;;;;;;5066525;28;20430;-75
2023/01/15 03:06:15;;;;;;;17.23;4.50;;;6.00;99.90;;;;;;5065454;28;20045;-78
2023/01/15 03:08:41;;;;;;;18.20;4.73;;;5.90;99.90;;;;;;5070431;28;20056;-76
2023/01/15 03:11:10;;;;;;;71.57;65.57;;;5.90;99.90;;;;;;5071829;28;20051;-76
2023/01/15 03:13:41;;;;;;;20.53;7.80;;;5.80;99.90;;;;;;5070964;28;20079;-77
2023/01/15 03:19:21;;;;;;;26.87;9.23;;;5.60;99.90;;;;;;5069359;28;20034;-76
2023/01/15 03:22:19;;;;;;;19.60;9.43;;;5.60;99.90;;;;;;5071451;28;20076;-78
2023/01/15 03:24:47;;;;;;;15.47;4.87;;;5.60;99.90;;;;;;5069956;28;20049;-76
2023/01/15 03:27:14;;;;;;;14.50;5.40;;;5.70;99.90;;;;;;5070440;28;20088;-79
2023/01/15 03:29:46;;;;;;;18.27;5.97;;;5.70;99.90;;;;;;5070785;28;20054;-79
2023/01/15 03:32:13;;;;;;;24.30;10.43;;;5.70;99.90;;;;;;5071114;28;20052;-77
2023/01/15 03:34:51;;;;;;;23.30;12.60;;;5.70;99.90;;;;;;5069408;28;20493;-77
2023/01/15 03:37:18;;;;;;;24.90;5.70;;;5.80;99.90;;;;;;5067897;28;20666;-76
2023/01/15 03:39:44;;;;;;;28.37;14.27;;;5.70;99.90;;;;;;5071127;28;20053;-77
2023/01/15 03:42:19;;;;;;;17.93;6.97;;;5.80;99.90;;;;;;5071045;28;20489;-76
2023/01/15 03:45:06;;;;;;;25.80;10.53;;;5.70;99.90;;;;;;5070849;28;20509;-76
2023/01/15 03:47:47;;;;;;;20.47;12.37;;;5.70;99.90;;;;;;5070340;28;20044;-77
2023/01/15 03:50:23;;;;;;;20.52;5.00;;;5.70;99.90;;;;;;5070684;28;20136;-77
2023/01/15 03:52:54;;;;;;;16.53;5.73;;;5.80;99.90;;;;;;5071451;28;20056;-78
2023/01/15 03:55:27;;;;;;;20.70;7.70;;;5.90;99.90;;;;;;5067129;28;20049;-76
2023/01/15 03:58:05;;;;;;;17.73;5.53;;;5.70;99.90;;;;;;5068564;28;20193;-77
2023/01/15 04:00:49;;;;;;;18.27;8.03;;;5.80;99.90;;;;;;5070624;28;20053;-76
2023/01/15 04:03:17;;;;;;;27.93;8.67;;;5.80;99.90;;;;;;5070152;28;20494;-77
2023/01/15 04:05:43;;;;;;;15.93;5.50;;;5.70;99.90;;;;;;5070548;28;20102;-77
2023/01/15 04:08:11;;;;;;;22.43;11.40;;;5.70;99.90;;;;;;5069865;28;20041;-76
2023/01/15 04:10:37;;;;;;;26.30;8.57;;;5.80;99.90;;;;;;5069894;28;20077;-76
2023/01/15 04:13:02;;;;;;;20.00;7.70;;;5.70;99.90;;;;;;5070014;28;20048;-76
2023/01/15 04:15:28;;;;;;;20.53;7.07;;;5.70;99.90;;;;;;5070087;28;20052;-78
2023/01/15 04:17:54;;;;;;;20.97;12.77;;;5.70;99.90;;;;;;5067022;28;20036;-77
2023/01/15 04:20:19;;;;;;;34.57;19.80;;;5.80;99.90;;;;;;5070162;28;20231;-77
2023/01/15 04:22:45;;;;;;;18.97;7.70;;;5.70;99.90;;;;;;5070445;28;20044;-77
2023/01/15 04:25:11;;;;;;;21.13;6.77;;;5.80;99.90;;;;;;5068890;28;20048;-77
2023/01/15 04:27:36;;;;;;;17.90;6.30;;;5.70;99.90;;;;;;5070792;28;20123;-79
2023/01/15 04:30:03;;;;;;;18.20;5.80;;;5.70;99.90;;;;;;5069650;28;20048;-76
2023/01/15 04:32:28;;;;;;;24.20;9.80;;;5.60;99.90;;;;;;5052495;28;20047;-77
2023/01/15 04:34:54;;;;;;;19.63;5.07;;;5.60;99.90;;;;;;5069347;28;20465;-76
2023/01/15 04:37:20;;;;;;;22.00;7.30;;;5.60;99.90;;;;;;5067581;28;20048;-76
2023/01/15 04:39:46;;;;;;;23.00;13.53;;;5.60;99.90;;;;;;5070033;28;20583;-77
2023/01/15 04:44:57;;;;;;;22.27;6.67;;;5.60;99.90;;;;;;5069803;28;20058;-76
2023/01/15 04:47:23;;;;;;;18.40;5.50;;;5.60;99.90;;;;;;5068727;28;20048;-76
2023/01/15 04:49:48;;;;;;;16.60;6.50;;;5.60;99.90;;;;;;5069754;28;20037;-77
2023/01/15 04:52:14;;;;;;;18.57;7.40;;;5.50;99.90;;;;;;5069960;28;20052;-76
2023/01/15 04:54:40;;;;;;;18.20;5.93;;;5.60;99.90;;;;;;5069149;28;20055;-76
2023/01/15 04:57:06;;;;;;;21.93;5.00;;;5.50;99.90;;;;;;5067839;28;20083;-78
2023/01/15 04:59:32;;;;;;;19.83;7.97;;;5.50;99.90;;;;;;5069031;28;20435;-76
2023/01/15 05:01:57;;;;;;;18.10;7.77;;;5.50;99.90;;;;;;5069812;28;20052;-76
2023/01/15 05:04:23;;;;;;;18.40;12.10;;;5.50;99.90;;;;;;5069141;28;20431;-77
2023/01/15 05:06:49;;;;;;;27.87;7.93;;;5.50;99.90;;;;;;5068336;28;20431;-77
2023/01/15 05:09:15;;;;;;;15.00;4.83;;;5.50;99.90;;;;;;5069312;28;20113;-77
2023/01/15 05:11:41;;;;;;;21.33;11.90;;;5.40;99.90;;;;;;5068072;28;20053;-80
2023/01/15 05:14:06;;;;;;;26.13;19.17;;;5.50;99.90;;;;;;5067570;28;20186;-76
2023/01/15 05:16:33;;;;;;;15.77;4.53;;;5.60;99.90;;;;;;5065006;28;20051;-77
2023/01/15 05:19:02;;;;;;;22.67;8.00;;;5.50;99.90;;;;;;5068014;28;20070;-77
2023/01/15 05:21:30;;;;;;;16.70;5.20;;;5.40;99.90;;;;;;5067074;28;20048;-76
2023/01/15 05:23:57;;;;;;;23.27;5.93;;;5.40;99.90;;;;;;5062051;28;20051;-76
2023/01/15 05:26:23;;;;;;;23.60;11.43;;;5.30;99.90;;;;;;5065499;28;20044;-77
2023/01/15 05:28:53;;;;;;;78.07;71.07;;;5.30;99.90;;;;;;5051757;28;20075;-76
2023/01/15 05:31:19;;;;;;;18.83;5.03;;;5.30;99.90;;;;;;5069194;28;20127;-78
2023/01/15 05:33:46;;;;;;;19.73;7.17;;;5.30;99.90;;;;;;5068069;28;20197;-76
2023/01/15 05:36:14;;;;;;;20.57;4.93;;;5.20;99.90;;;;;;5065591;28;20045;-76
2023/01/15 05:38:41;;;;;;;23.63;5.03;;;5.20;99.90;;;;;;5064740;28;20489;-77
2023/01/15 05:43:59;;;;;;;20.07;8.70;;;5.20;99.90;;;;;;5068428;28;20056;-76
2023/01/15 05:46:25;;;;;;;18.27;6.70;;;5.10;99.90;;;;;;5050805;28;20083;-77
2023/01/15 05:48:51;;;;;;;21.50;6.43;;;5.10;99.90;;;;;;5067682;28;20434;-77
2023/01/15 05:51:17;;;;;;;23.20;9.83;;;5.10;99.90;;;;;;5069134;28;20074;-76
2023/01/15 05:53:43;;;;;;;23.67;6.33;;;5.10;99.90;;;;;;5066287;28;20060;-77
2023/01/15 05:56:08;;;;;;;14.27;5.23;;;5.00;99.90;;;;;;5066703;28;20056;-76
2023/01/15 05:58:35;;;;;;;17.07;4.70;;;5.10;99.90;;;;;;5065981;28;20044;-77
2023/01/15 06:01:09;;;;;;;20.10;9.23;;;5.00;99.90;;;;;;5066035;28;21069;-77
2023/01/15 06:03:35;;;;;;;19.93;6.03;;;4.90;99.90;;;;;;5067812;28;20059;-78
2023/01/15 06:06:01;;;;;;;16.30;11.07;;;5.20;99.90;;;;;;5065720;28;20036;-78
2023/01/15 06:08:27;;;;;;;17.73;7.37;;;5.10;99.90;;;;;;5066232;28;20044;-76
2023/01/15 06:10:52;;;;;;;12.17;7.07;;;5.10;99.90;;;;;;5066003;28;20102;-77
2023/01/15 06:13:18;;;;;;;17.53;6.00;;;5.00;99.90;;;;;;5060883;28;20406;-80
2023/01/15 06:15:44;;;;;;;19.30;5.27;;;5.00;99.90;;;;;;5064657;28;20048;-76
2023/01/15 06:18:10;;;;;;;32.37;28.40;;;5.00;99.90;;;;;;5065313;28;20382;-76
2023/01/15 06:20:40;;;;;;;22.03;6.50;;;5.00;99.90;;;;;;5065044;28;20052;-79
2023/01/15 06:23:06;;;;;;;23.70;10.63;;;5.00;99.90;;;;;;5064755;28;20045;-77
2023/01/15 06:25:35;;;;;;;26.73;17.43;;;5.10;99.90;;;;;;5061667;28;20053;-78
2023/01/15 06:28:05;;;;;;;43.47;38.80;;;5.10;99.90;;;;;;5064745;28;20048;-76
2023/01/15 06:30:31;;;;;;;29.07;21.83;;;5.10;99.90;;;;;;5062397;28;20506;-79
2023/01/15 06:32:57;;;;;;;15.37;5.10;;;5.10;99.90;;;;;;5063346;28;20641;-76
2023/01/15 06:35:23;;;;;;;17.13;6.47;;;5.10;99.90;;;;;;5063564;28;20041;-76
2023/01/15 06:37:49;;;;;;;19.30;8.53;;;5.10;99.90;;;;;;5062857;28;20044;-77
2023/01/15 06:40:15;;;;;;;20.70;13.00;;;5.10;99.90;;;;;;5065445;28;20102;-76
2023/01/15 06:48:10;;;;;;;19.97;12.70;;;5.00;99.90;;;;;;5067630;28;20041;-76
2023/01/15 06:50:36;;;;;;;43.87;39.73;;;5.10;99.90;;;;;;5068894;28;20055;-77
2023/01/15 06:53:02;;;;;;;21.60;16.13;;;5.00;99.90;;;;;;5069137;28;20059;-76
2023/01/15 06:55:27;;;;;;;67.60;60.53;;;5.20;99.90;;;;;;5068139;28;20134;-76
2023/01/15 06:57:53;;;;;;;22.10;10.57;;;5.20;99.90;;;;;;5068993;28;20410;-77
2023/01/15 07:00:19;;;;;;;22.07;5.43;;;5.20;99.90;;;;;;5067439;28;20091;-76
2023/01/15 07:02:44;;;;;;;18.13;4.73;;;5.20;99.90;;;;;;5067191;28;20056;-76
2023/01/15 07:05:10;;;;;;;18.00;6.30;;;5.10;99.90;;;;;;5068049;28;20053;-76
2023/01/15 07:07:36;;;;;;;18.93;7.13;;;5.00;99.90;;;;;;5068775;28;20094;-76
2023/01/15 07:10:02;;;;;;;20.83;10.07;;;5.00;99.90;;;;;;5067005;28;20055;-76
2023/01/15 07:12:27;;;;;;;17.80;7.77;;;5.10;99.90;;;;;;5067938;28;20449;-76
2023/01/15 07:14:53;;;;;;;15.10;7.63;;;5.10;99.90;;;;;;5071267;28;20052;-76
2023/01/15 07:17:19;;;;;;;16.07;7.50;;;5.10;99.90;;;;;;5068748;28;20072;-76
2023/01/15 07:19:45;;;;;;;22.13;10.67;;;5.10;99.90;;;;;;5070304;28;20048;-76
2023/01/15 07:22:12;;;;;;;22.27;18.63;;;5.10;99.90;;;;;;5070580;28;20054;-76
2023/01/15 07:24:38;;;;;;;18.07;5.97;;;5.10;99.90;;;;;;5069302;28;20040;-76
2023/01/15 07:27:04;;;;;;;22.03;19.83;;;5.20;99.90;;;;;;5071552;28;20131;-76
2023/01/15 07:29:30;;;;;;;19.77;7.90;;;5.20;99.90;;;;;;5071031;28;20449;-77
2023/01/15 07:31:55;;;;;;;19.73;16.87;;;5.30;99.90;;;;;;5072406;28;20124;-76
2023/01/15 07:34:21;;;;;;;18.20;4.63;;;5.20;99.90;;;;;;5069377;28;20406;-77
2023/01/15 07:36:47;;;;;;;84.17;76.73;;;5.20;99.90;;;;;;5070964;28;20121;-75
2023/01/15 07:39:13;;;;;;;105.73;95.97;;;5.30;99.90;;;;;;5070849;28;20424;-77
2023/01/15 07:50:08;;;;;;;56.47;51.43;;;5.10;99.90;;;;;;5067548;28;20389;-77
2023/01/15 07:52:33;;;;;;;117.17;107.73;;;5.10;99.90;;;;;;5068081;28;20116;-75
2023/01/15 07:55:00;;;;;;;73.47;68.30;;;5.10;99.90;;;;;;5067190;28;20505;-76
2023/01/15 07:57:26;;;;;;;16.13;7.43;;;5.10;99.90;;;;;;5046491;28;20068;-77
2023/01/15 07:59:52;;;;;;;21.87;5.80;;;5.10;99.90;;;;;;5054018;28;20152;-76
2023/01/15 08:02:17;;;;;;;23.97;20.73;;;5.00;99.90;;;;;;5064362;28;20131;-75
2023/01/15 08:04:43;;;;;;;20.27;15.47;;;5.00;99.90;;;;;;5066363;28;20063;-77
2023/01/15 08:07:10;;;;;;;23.87;19.57;;;5.00;99.90;;;;;;5066719;28;20508;-76
2023/01/15 08:09:36;;;;;;;37.07;33.73;;;5.00;99.90;;;;;;5065019;28;20390;-75
2023/01/15 08:17:35;;;;;;;16.10;4.73;;;5.20;99.90;;;;;;5061251;28;20048;-76
2023/01/15 08:20:05;;;;;;;15.13;8.80;;;5.10;99.90;;;;;;5066267;28;20045;-77
2023/01/15 08:22:31;;;;;;;27.97;25.13;;;5.10;99.90;;;;;;5062513;28;20044;-76
2023/01/15 08:24:57;;;;;;;23.57;19.70;;;5.10;99.90;;;;;;5062544;28;20375;-78
2023/01/15 08:27:23;;;;;;;21.40;14.53;;;5.00;99.90;;;;;;5064881;28;20040;-75
2023/01/15 08:29:48;;;;;;;149.03;135.20;;;5.10;99.90;;;;;;5065436;28;20497;-77
2023/01/15 08:32:14;;;;;;;27.90;23.87;;;5.10;99.90;;;;;;5064025;28;20146;-76
2023/01/15 08:34:40;;;;;;;20.33;11.40;;;5.10;99.90;;;;;;5064672;28;20071;-76
2023/01/15 08:37:05;;;;;;;18.37;16.40;;;5.20;99.90;;;;;;5065107;28;20049;-76
2023/01/15 08:39:31;;;;;;;13.10;6.07;;;5.20;99.90;;;;;;5066236;28;20044;-76
2023/01/15 08:41:57;;;;;;;24.50;20.27;;;5.30;99.90;;;;;;5054869;28;20048;-76
2023/01/15 08:44:23;;;;;;;42.53;38.70;;;5.30;99.90;;;;;;5065306;28;20044;-78
2023/01/15 08:46:50;;;;;;;42.13;38.17;;;5.30;99.90;;;;;;5066131;28;20048;-77
2023/01/15 08:49:17;;;;;;;23.13;20.77;;;5.40;99.90;;;;;;5065769;28;20044;-75
2023/01/15 08:51:44;;;;;;;22.27;14.30;;;5.30;99.90;;;;;;5065828;28;20045;-77
2023/01/15 08:54:11;;;;;;;21.33;5.20;;;5.20;99.90;;;;;;5059070;28;20049;-77
2023/01/15 08:56:37;;;;;;;53.13;48.20;;;5.20;99.90;;;;;;5065552;28;20048;-77
2023/01/15 08:59:05;;;;;;;32.53;29.30;;;5.10;99.90;;;;;;5066019;28;20048;-75
2023/01/15 09:01:31;;;;;;;32.60;29.53;;;5.20;99.90;;;;;;5065549;28;20060;-76
2023/01/15 09:03:57;;;;;;;18.27;9.63;;;5.10;99.90;;;;;;5065512;28;20410;-76
2023/01/15 09:06:23;;;;;;;16.37;5.87;;;4.80;99.90;;;;;;5045481;28;20056;-76
2023/01/15 09:08:49;;;;;;;27.80;24.87;;;4.80;99.90;;;;;;5063756;28;20041;-77
2023/01/15 09:11:14;;;;;;;23.17;20.80;;;4.80;99.90;;;;;;5064926;28;20102;-78
2023/01/15 09:13:40;;;;;;;45.37;41.43;;;4.70;99.90;;;;;;5065875;28;20401;-76
2023/01/15 09:16:08;;;;;;;16.00;6.60;;;4.70;99.90;;;;;;5064091;28;20057;-77
2023/01/15 09:18:36;;;;;;;13.27;7.43;;;4.60;99.90;;;;;;5065279;28;20058;-78
2023/01/15 09:21:02;;;;;;;22.53;13.13;;;4.70;99.90;;;;;;5065303;28;20044;-77
2023/01/15 09:23:28;;;;;;;131.57;120.03;;;4.70;99.90;;;;;;5061926;28;20158;-75
2023/01/15 09:26:04;;;;;;;128.70;118.00;;;4.80;99.90;;;;;;5064352;28;20055;-77
2023/01/15 09:28:29;;;;;;;56.73;52.40;;;5.00;99.90;;;;;;5063840;28;20052;-77
2023/01/15 09:30:55;;;;;;;14.87;5.57;;;5.10;99.90;;;;;;5064858;28;20036;-76
2023/01/15 09:33:21;;;;;;;17.67;7.37;;;5.20;99.90;;;;;;5060312;28;20039;-76
2023/01/15 09:35:47;;;;;;;21.50;8.87;;;5.20;99.90;;;;;;5059618;28;20090;-77
2023/01/15 09:38:14;;;;;;;31.27;20.10;;;5.20;99.90;;;;;;5063919;28;20068;-76
2023/01/15 09:40:51;;;;;;;23.33;13.40;;;5.10;99.90;;;;;;5063955;28;20327;-75
2023/01/15 09:43:46;;;;;;;14.97;6.47;;;5.10;99.90;;;;;;5063778;28;20135;-77
2023/01/15 09:46:32;;;;;;;128.77;117.37;;;5.20;99.90;;;;;;5062501;28;20063;-75
2023/01/15 09:49:27;;;;;;;53.93;48.53;;;5.40;99.90;;;;;;5064761;28;20128;-78
2023/01/15 09:52:17;;;;;;;21.93;11.57;;;5.70;99.90;;;;;;5064319;28;20051;-76
2023/01/15 09:54:51;;;;;;;20.33;8.13;;;5.80;99.90;;;;;;5064071;28;20498;-77
2023/01/15 09:57:18;;;;;;;43.63;40.20;;;5.90;99.90;;;;;;5063395;28;20154;-78
2023/01/15 09:59:47;;;;;;;98.67;89.77;;;5.90;99.90;;;;;;5062876;28;20058;-76
2023/01/15 10:02:39;;;;;;;47.37;43.33;;;6.00;99.90;;;;;;5064045;28;20056;-76
2023/01/15 10:05:19;;;;;;;;;;;5.80;99.90;;;;;;5061948;28;20060;-76
2023/01/15 10:07:53;;;;;;;137.10;126.20;;;5.80;99.90;;;;;;5063326;28;19987;-77
2023/01/15 10:10:22;;;;;;;23.50;14.77;;;6.00;99.90;;;;;;5060282;28;20040;-77
2023/01/15 10:12:52;;;;;;;224.47;205.37;;;6.10;99.90;;;;;;5061329;28;20080;-77
2023/01/15 10:15:34;;;;;;;43.90;32.80;;;6.20;99.90;;;;;;5064205;28;20063;-77
2023/01/15 10:18:00;;;;;;;48.50;43.93;;;6.50;99.90;;;;;;5062301;28;20051;-79
2023/01/15 10:20:51;;;;;;;76.80;69.73;;;6.80;99.90;;;;;;5066570;28;20490;-78
2023/01/15 10:23:43;;;;;;;174.05;157.43;;;6.60;99.90;;;;;;5066009;28;20056;-77
2023/01/15 10:26:27;;;;;;;16.27;7.17;;;6.40;99.90;;;;;;5066399;28;20465;-76
2023/01/15 10:29:20;;;;;;;49.20;44.60;;;6.30;99.90;;;;;;5065062;28;20577;-75
2023/01/15 10:31:53;;;;;;;46.30;42.83;;;6.20;99.90;;;;;;5064435;28;20045;-77
2023/01/15 10:34:58;;;;;;;104.30;95.03;;;6.10;99.90;;;;;;5062463;28;20052;-76
2023/01/15 10:37:44;;;;;;;98.57;90.77;;;6.10;99.90;;;;;;5064286;28;20497;-76
2023/01/15 10:40:33;;;;;;;292.77;260.90;;;6.10;99.90;;;;;;5062670;28;20067;-75
2023/01/15 10:43:27;;;;;;;31.60;25.00;;;6.40;99.90;;;;;;5064585;28;20095;-76
2023/01/15 10:46:01;;;;;;;48.57;39.20;;;6.60;99.90;;;;;;5063599;28;20044;-76
2023/01/15 10:48:50;;;;;;;131.57;118.97;;;6.90;99.90;;;;;;5064757;28;20109;-76
2023/01/15 10:51:33;;;;;;;91.60;85.70;;;7.20;99.90;;;;;;5063050;28;20126;-77
2023/01/15 10:54:28;;;;;;;67.47;61.83;;;7.30;99.90;;;;;;5064652;28;20044;-77
2023/01/15 10:57:07;;;;;;;125.57;115.07;;;7.50;99.90;;;;;;5061764;28;20056;-76
2023/01/15 10:59:36;;;;;;;164.37;148.73;;;7.50;99.90;;;;;;5062953;28;20148;-76
2023/01/15 11:02:10;;;;;;;30.73;27.63;;;7.60;99.90;;;;;;5061285;28;20056;-77
2023/01/15 11:04:36;;;;;;;91.00;84.90;;;7.60;99.90;;;;;;5064390;28;20041;-77
2023/01/15 11:07:04;;;;;;;28.83;26.00;;;7.70;99.90;;;;;;5061822;28;20041;-77
2023/01/15 11:09:31;;;;;;;120.37;111.77;;;7.60;99.90;;;;;;5060266;28;20405;-77
2023/01/15 11:21:14;;;;;;;308.43;283.07;;;6.90;99.90;;;;;;5063315;28;20056;-77
2023/01/15 11:23:40;;;;;;;36.60;33.33;;;6.90;99.90;;;;;;5060737;28;20577;-76
2023/01/15 11:26:06;;;;;;;283.37;259.60;;;6.90;99.90;;;;;;5050838;28;20057;-75
2023/01/15 11:28:39;;;;;;;39.27;36.17;;;6.90;99.90;;;;;;5057854;28;20045;-77
2023/01/15 11:31:07;;;;;;;32.67;29.20;;;6.90;99.90;;;;;;5062642;28;20048;-77
2023/01/15 11:33:33;;;;;;;56.67;52.00;;;6.80;99.90;;;;;;5064684;28;20048;-76
2023/01/15 11:36:20;;;;;;;36.70;33.40;;;6.80;99.90;;;;;;5053859;28;20052;-79
2023/01/15 11:38:48;;;;;;;643.77;471.40;;;6.90;99.90;;;;;;5058043;28;20110;-76
2023/01/15 11:41:20;;;;;;;84.57;77.27;;;6.80;99.90;;;;;;5057882;28;20106;-76
2023/01/15 11:52:10;;;;;;;515.73;457.47;;;6.70;99.90;;;;;;5059612;28;20044;-77
2023/01/15 11:54:42;;;;;;;219.40;199.47;;;6.40;99.90;;;;;;5060178;28;20546;-79
2023/01/15 11:57:09;;;;;;;966.80;665.70;;;6.20;99.90;;;;;;5061060;28;20414;-77
2023/01/15 11:59:35;;;;;;;31.13;25.13;;;6.00;99.90;;;;;;5065642;28;20060;-77
2023/01/15 12:02:20;;;;;;;880.27;491.73;;;5.80;99.90;;;;;;5066741;28;20053;-76
2023/01/15 12:04:54;;;;;;;460.43;327.80;;;5.70;99.90;;;;;;5066253;28;20049;-77
2023/01/15 12:07:23;;;;;;;26.87;16.53;;;5.40;99.90;;;;;;5063031;28;20550;-77
2023/01/15 12:10:19;;;;;;;24.47;10.20;;;5.30;99.90;;;;;;5066728;28;20105;-77
2023/01/15 12:13:18;;;;;;;36.07;22.47;;;5.20;99.90;;;;;;5065881;28;20059;-79
2023/01/15 12:16:08;;;;;;;570.47;487.30;;;5.10;99.90;;;;;;5067680;28;20158;-78
2023/01/15 12:18:46;;;;;;;276.87;248.27;;;4.70;99.90;;;;;;5067699;28;20514;-77
2023/01/15 12:21:41;;;;;;;12.53;4.67;;;4.40;99.90;;;;;;5065646;28;20545;-78
2023/01/15 12:24:54;;;;;;;124.97;113.30;;;4.20;99.90;;;;;;5063960;28;20533;-78
2023/01/15 12:27:42;;;;;;;525.50;380.70;;;4.20;99.90;;;;;;5040584;28;20139;-78
2023/01/15 12:30:38;;;;;;;210.83;194.97;;;4.30;99.90;;;;;;5065435;28;20047;-78
2023/01/15 12:33:16;;;;;;;194.83;179.80;;;4.30;99.90;;;;;;5063313;28;20093;-78
2023/01/15 12:35:47;;;;;;;99.23;85.43;;;4.40;99.90;;;;;;5062816;28;20463;-77
2023/01/15 12:38:23;;;;;;;224.10;205.65;;;4.60;99.90;;;;;;5066409;28;20458;-78
2023/01/15 12:41:03;;;;;;;310.10;281.60;;;4.90;99.90;;;;;;5063290;28;20491;-78
2023/01/15 12:46:23;;;;;;;236.33;208.27;;;4.80;99.90;;;;;;5047616;28;20524;-78
2023/01/15 12:49:12;;;;;;;166.67;150.10;;;4.90;99.90;;;;;;5067190;28;20090;-77
2023/01/15 12:51:50;;;;;;;928.90;603.20;;;5.00;99.90;;;;;;5043739;28;20131;-78
2023/01/15 12:54:23;;;;;;;23.33;20.90;;;5.00;99.90;;;;;;5042129;28;20042;-77
2023/01/15 12:57:05;;;;;;;20.87;17.60;;;5.10;99.90;;;;;;5030456;28;20406;-80
2023/01/15 12:59:47;;;;;;;222.13;179.27;;;4.90;99.90;;;;;;5053394;28;20052;-79
2023/01/15 13:02:24;;;;;;;18.57;15.93;;;5.00;99.90;;;;;;5068320;28;20494;-76
2023/01/15 13:05:12;;;;;;;311.93;279.90;;;4.90;99.90;;;;;;5063454;28;20056;-80
2023/01/15 13:07:48;;;;;;;111.90;102.60;;;5.00;99.90;;;;;;5048949;28;21450;-77
2023/01/15 13:10:26;;;;;;;36.70;33.07;;;5.10;99.90;;;;;;5066700;28;20057;-78
2023/01/15 13:13:00;;;;;;;20.13;13.57;;;5.10;99.90;;;;;;5043803;28;20068;-77
2023/01/15 13:15:32;;;;;;;23.80;4.57;;;5.20;99.90;;;;;;5047674;28;20057;-77
2023/01/15 13:18:11;;;;;;;;;;;5.00;99.90;;;;;;5052459;28;20052;-77
2023/01/15 13:20:49;;;;;;;17.83;8.60;;;5.00;99.90;;;;;;5037038;28;20015;-77
2023/01/15 13:23:31;;;;;;;29.33;20.27;;;4.90;99.90;;;;;;5056577;28;20063;-78
2023/01/15 13:26:05;;;;;;;209.15;157.18;;;4.90;99.90;;;;;;5048814;28;20036;-78
2023/01/15 13:28:52;;;;;;;38.27;34.83;;;4.90;99.90;;;;;;5040270;28;20581;-76
2023/01/15 13:31:55;;;;;;;37.80;33.63;;;4.90;99.90;;;;;;5050782;28;20104;-77
2023/01/15 13:34:42;;;;;;;255.50;178.20;;;4.80;99.90;;;;;;5053481;28;20063;-77
2023/01/15 13:37:28;;;;;;;27.93;17.53;;;4.90;99.90;;;;;;5050166;28;20048;-80
2023/01/15 13:40:11;;;;;;;11.47;8.77;;;4.70;99.90;;;;;;5038875;28;20056;-79
2023/01/15 13:42:39;;;;;;;10.37;8.40;;;4.40;99.90;;;;;;5065778;28;20052;-79
2023/01/15 13:45:26;;;;;;;21.63;19.97;;;4.20;99.90;;;;;;5058485;28;20185;-78
2023/01/15 13:47:57;;;;;;;16.97;15.80;;;4.20;99.90;;;;;;5049318;28;20076;-78
2023/01/15 13:50:30;;;;;;;;;;;4.20;99.90;;;;;;5069467;28;20040;-78
2023/01/15 13:53:43;;;;;;;30.90;28.10;;;4.20;99.90;;;;;;5067117;28;20015;-78